Edgewater, Wisconsin
Current Conditions -  °F | °C
As of 2:53 AM on Friday 24 Oct 2014 (Local Time) from KHYR Reporting Station
Haze Haze  
Wind Chill: 45°   Ceiling: 500
Heat Index: 49°   Visibility: 5mi
Dew Point: 47°   Wind: 8mph
Humidity: 93%   Direction: 190°S
Pressure: 29.97"   Gusts: NA
Location:  45.74°N, 91.48°W
Report Text: KHYR 240753Z AUTO 19007KT 5SM BR OVC005 09/08 A2997 RMK AO2 SLP155 T00940083
Loading
Personal Weather Stations






























Interactive Weather Map
Tropical Storm Tracking
New forecast layout! Learn more

10-Day Weather Forecast

Advertisements
Track Severe Weather on mobile